S C — FGF7634 — position and weather

sailwx.info

Track history (hours):
 
Tides and Currents Weather Stations Pressure Air Temp Water Temp Dewpoint Dewpoint Depression Visibility Wind Speed Wind Dir Waves Ship Positions

S C

Last reported at 2015-May-22 13:34 UTC. Time now 2015-May-26 09:47 UTC.
Position N 49°29' E 000°07'.

; draft 1 m.

Type: Pilot. MMSI: 227001820.

Date/timePositionNaut miles runAvg speedWind from/ knotsBaromVisibWave heightAir tempDewpointWater temp
2015-May-22 13:34N 49°29' E 000°07'0 0.0
2015-May-21 13:30N 49°29' E 000°07'0 0.0
2015-May-21 12:33N 49°29' E 000°07'0 0.0
2015-May-21 11:33N 49°29' E 000°07'2 2.2
2015-May-21 10:33N 49°30' E 000°03'2 1.8
2015-May-21 09:33N 49°29' E 000°06'4 3.9
2015-May-21 08:34N 49°30' E 000°00'4 4.4
2015-May-21 07:33N 49°29' E 000°07'0 0.1
2015-May-21 06:34N 49°29' E 000°07'0 0.1
2015-May-21 05:33N 49°29' E 000°07'8 8.0
2015-May-21 04:33N 49°34' W 000°03'9 8.6
2015-May-21 03:30N 49°41' W 000°12'1717.8
2015-May-21 02:33N 49°29' E 000°07'0 0.2
2015-May-21 01:33N 49°29' E 000°06'0 0.2
2015-May-21 00:33N 49°29' E 000°07'0 0.1
2015-May-20 23:33N 49°29' E 000°07'1 0.8
2015-May-20 22:34N 49°29' E 000°05'1 0.9
2015-May-20 21:33N 49°29' E 000°07'1111.0
2015-May-20 20:33N 49°32' W 000°09'1010.1
2015-May-20 19:34N 49°29' E 000°05'1 0.8
2015-May-20 18:33N 49°29' E 000°07'9 9.2
2015-May-20 17:33N 49°32' W 000°07'9 9.3
2015-May-20 16:33N 49°29' E 000°07'9 8.5
2015-May-20 15:33N 49°32' W 000°06'9 8.5
2015-May-20 14:33N 49°29' E 000°07'0 0.0
2015-May-20 13:33N 49°29' E 000°07'0 0.0
2015-May-20 12:33N 49°29' E 000°07'0 0.0
2015-May-19 12:27N 49°29' E 000°07'0 0.0
2015-May-19 11:33N 49°29' E 000°07'0 0.0
2015-May-19 10:33N 49°29' E 000°07'0 0.0
2015-May-19 09:33N 49°29' E 000°07'0 0.0
2015-May-19 08:33N 49°29' E 000°07'0 0.0
2015-May-18 14:33N 49°29' E 000°07'3 3.2
2015-May-18 13:33N 49°30' E 000°02'3 3.2
2015-May-18 12:34N 49°29' E 000°07'0 0.0
2015-May-18 11:34N 49°29' E 000°07'0 0.5
2015-May-18 10:33N 49°29' E 000°06'8 7.9
2015-May-18 09:34N 49°32' W 000°05'5 4.7
2015-May-18 08:34N 49°31' E 000°02'5 5.0
2015-May-18 07:34N 49°31' W 000°06'8 8.4
2015-May-18 06:33N 49°29' E 000°07'0 0.0
2015-May-18 05:33N 49°29' E 000°07'9 9.1
2015-May-18 04:34N 49°32' W 000°07'3 3.2
2015-May-18 03:33N 49°31' W 000°02'6 5.5
2015-May-18 02:33N 49°29' E 000°06'0 0.3
2015-May-18 01:33N 49°29' E 000°07'0 0.0
2015-May-18 00:34N 49°29' E 000°07'0 0.0
2015-May-17 23:34N 49°29' E 000°07'0 0.0
2015-May-17 22:33N 49°29' E 000°07'0 0.0
2015-May-17 21:33N 49°29' E 000°07'0 0.0
2015-May-17 20:33N 49°29' E 000°07'0 0.0
2015-May-17 19:33N 49°29' E 000°07'3 2.6
2015-May-17 18:33N 49°30' E 000°03'3 2.6
2015-May-17 17:34N 49°29' E 000°07'0 0.0
2015-May-17 16:33N 49°29' E 000°07'0 0.0
2015-May-17 15:33N 49°29' E 000°07'0 0.0
2015-May-17 14:34N 49°29' E 000°07'0 0.0
2015-May-17 13:33N 49°29' E 000°07'0 0.0
2015-May-17 12:34N 49°29' E 000°07'7 6.9
2015-May-17 11:33N 49°31' W 000°04'7 6.9
2015-May-17 10:33N 49°29' E 000°07'0 0.0
2015-May-17 09:33N 49°29' E 000°07'5 5.2
2015-May-17 08:34N 49°30' W 000°01'5 5.2
2015-May-17 07:34N 49°29' E 000°07'0 0.0
2015-May-17 06:34N 49°29' E 000°07'0 0.0
2015-May-17 05:34N 49°29' E 000°07'0 0.0
2015-May-17 04:33N 49°29' E 000°07'8 8.2
2015-May-17 03:34N 49°31' W 000°05'2 2.2
2015-May-17 02:34N 49°30' W 000°02'6 5.6
2015-May-17 01:33N 49°29' E 000°06'0 0.1
2015-May-17 00:33N 49°29' E 000°06'0 0.5
2015-May-16 23:33N 49°29' E 000°07'0 0.0
2015-May-16 22:33N 49°29' E 000°07'1 0.8
2015-May-16 21:33N 49°29' E 000°06'1 0.8
2015-May-16 20:34N 49°29' E 000°07'  
Track history (hours):
 
Tides and Currents Weather Stations Pressure Air Temp Water Temp Dewpoint Dewpoint Depression Visibility Wind Speed Wind Dir Waves Ship Positions

S C

Last reported at 2015-May-22 13:34 UTC. Time now 2015-May-26 09:47 UTC.
Position N 49°29' E 000°07'.

; draft 1 m.

Type: Pilot. MMSI: 227001820.

Date/timePositionNaut miles runAvg speedWind from/ knotsBaromVisibWave heightAir tempDewpointWater temp
2015-May-22 13:34N 49°29' E 000°07'0 0.0
2015-May-21 13:30N 49°29' E 000°07'0 0.0
2015-May-21 12:33N 49°29' E 000°07'0 0.0
2015-May-21 11:33N 49°29' E 000°07'2 2.2
2015-May-21 10:33N 49°30' E 000°03'2 1.8
2015-May-21 09:33N 49°29' E 000°06'4 3.9
2015-May-21 08:34N 49°30' E 000°00'4 4.4
2015-May-21 07:33N 49°29' E 000°07'0 0.1
2015-May-21 06:34N 49°29' E 000°07'0 0.1
2015-May-21 05:33N 49°29' E 000°07'8 8.0
2015-May-21 04:33N 49°34' W 000°03'9 8.6
2015-May-21 03:30N 49°41' W 000°12'1717.8
2015-May-21 02:33N 49°29' E 000°07'0 0.2
2015-May-21 01:33N 49°29' E 000°06'0 0.2
2015-May-21 00:33N 49°29' E 000°07'0 0.1
2015-May-20 23:33N 49°29' E 000°07'1 0.8
2015-May-20 22:34N 49°29' E 000°05'1 0.9
2015-May-20 21:33N 49°29' E 000°07'1111.0
2015-May-20 20:33N 49°32' W 000°09'1010.1
2015-May-20 19:34N 49°29' E 000°05'1 0.8
2015-May-20 18:33N 49°29' E 000°07'9 9.2
2015-May-20 17:33N 49°32' W 000°07'9 9.3
2015-May-20 16:33N 49°29' E 000°07'9 8.5
2015-May-20 15:33N 49°32' W 000°06'9 8.5
2015-May-20 14:33N 49°29' E 000°07'0 0.0
2015-May-20 13:33N 49°29' E 000°07'0 0.0
2015-May-20 12:33N 49°29' E 000°07'0 0.0
2015-May-19 12:27N 49°29' E 000°07'0 0.0
2015-May-19 11:33N 49°29' E 000°07'0 0.0
2015-May-19 10:33N 49°29' E 000°07'0 0.0
2015-May-19 09:33N 49°29' E 000°07'0 0.0
2015-May-19 08:33N 49°29' E 000°07'0 0.0
2015-May-18 14:33N 49°29' E 000°07'3 3.2
2015-May-18 13:33N 49°30' E 000°02'3 3.2
2015-May-18 12:34N 49°29' E 000°07'0 0.0
2015-May-18 11:34N 49°29' E 000°07'0 0.5
2015-May-18 10:33N 49°29' E 000°06'8 7.9
2015-May-18 09:34N 49°32' W 000°05'5 4.7
2015-May-18 08:34N 49°31' E 000°02'5 5.0
2015-May-18 07:34N 49°31' W 000°06'8 8.4
2015-May-18 06:33N 49°29' E 000°07'0 0.0
2015-May-18 05:33N 49°29' E 000°07'9 9.1
2015-May-18 04:34N 49°32' W 000°07'3 3.2
2015-May-18 03:33N 49°31' W 000°02'6 5.5
2015-May-18 02:33N 49°29' E 000°06'0 0.3
2015-May-18 01:33N 49°29' E 000°07'0 0.0
2015-May-18 00:34N 49°29' E 000°07'0 0.0
2015-May-17 23:34N 49°29' E 000°07'0 0.0
2015-May-17 22:33N 49°29' E 000°07'0 0.0
2015-May-17 21:33N 49°29' E 000°07'0 0.0
2015-May-17 20:33N 49°29' E 000°07'0 0.0
2015-May-17 19:33N 49°29' E 000°07'3 2.6
2015-May-17 18:33N 49°30' E 000°03'3 2.6
2015-May-17 17:34N 49°29' E 000°07'0 0.0
2015-May-17 16:33N 49°29' E 000°07'0 0.0
2015-May-17 15:33N 49°29' E 000°07'0 0.0
2015-May-17 14:34N 49°29' E 000°07'0 0.0
2015-May-17 13:33N 49°29' E 000°07'0 0.0
2015-May-17 12:34N 49°29' E 000°07'7 6.9
2015-May-17 11:33N 49°31' W 000°04'7 6.9
2015-May-17 10:33N 49°29' E 000°07'0 0.0
2015-May-17 09:33N 49°29' E 000°07'5 5.2
2015-May-17 08:34N 49°30' W 000°01'5 5.2
2015-May-17 07:34N 49°29' E 000°07'0 0.0
2015-May-17 06:34N 49°29' E 000°07'0 0.0
2015-May-17 05:34N 49°29' E 000°07'0 0.0
2015-May-17 04:33N 49°29' E 000°07'8 8.2
2015-May-17 03:34N 49°31' W 000°05'2 2.2
2015-May-17 02:34N 49°30' W 000°02'6 5.6
2015-May-17 01:33N 49°29' E 000°06'0 0.1
2015-May-17 00:33N 49°29' E 000°06'0 0.5
2015-May-16 23:33N 49°29' E 000°07'0 0.0
2015-May-16 22:33N 49°29' E 000°07'1 0.8
2015-May-16 21:33N 49°29' E 000°06'1 0.8
2015-May-16 20:34N 49°29' E 000°07'  

Dump ship's entire track history